sensor_id;sensor_type;location;lat;lon;timestamp;pressure;altitude;pressure_sealevel;temperature;humidity
64886;BME280;51514;52.206;5.114;2023-11-19T00:00:07;100749.72;;;19.32;56.08
64886;BME280;51514;52.206;5.114;2023-11-19T00:02:39;100747.22;;;19.30;56.29
64886;BME280;51514;52.206;5.114;2023-11-19T00:05:05;100736.28;;;19.30;56.20
64886;BME280;51514;52.206;5.114;2023-11-19T00:07:34;100733.75;;;19.29;56.24
64886;BME280;51514;52.206;5.114;2023-11-19T00:10:00;100740.06;;;19.29;56.31
64886;BME280;51514;52.206;5.114;2023-11-19T00:12:34;100740.06;;;19.29;56.27
64886;BME280;51514;52.206;5.114;2023-11-19T00:14:59;100748.47;;;19.28;56.63
64886;BME280;51514;52.206;5.114;2023-11-19T00:17:25;100755.84;;;19.27;56.71
64886;BME280;51514;52.206;5.114;2023-11-19T00:19:50;100752.47;;;19.25;56.29
64886;BME280;51514;52.206;5.114;2023-11-19T00:22:16;100750.81;;;19.24;56.41
64886;BME280;51514;52.206;5.114;2023-11-19T00:24:42;100737.16;;;19.24;56.32
64886;BME280;51514;52.206;5.114;2023-11-19T00:27:07;100728.13;;;19.24;56.53
64886;BME280;51514;52.206;5.114;2023-11-19T00:29:33;100723.69;;;19.23;56.36
64886;BME280;51514;52.206;5.114;2023-11-19T00:31:58;100733.78;;;19.22;56.39
64886;BME280;51514;52.206;5.114;2023-11-19T00:34:23;100732.13;;;19.21;56.51
64886;BME280;51514;52.206;5.114;2023-11-19T00:36:49;100722.25;;;19.20;56.41
64886;BME280;51514;52.206;5.114;2023-11-19T00:39:15;100732.13;;;19.21;56.46
64886;BME280;51514;52.206;5.114;2023-11-19T00:41:40;100719.50;;;19.20;56.45
64886;BME280;51514;52.206;5.114;2023-11-19T00:44:05;100719.50;;;19.20;56.65
64886;BME280;51514;52.206;5.114;2023-11-19T00:46:31;100737.81;;;19.20;56.47
64886;BME280;51514;52.206;5.114;2023-11-19T00:48:58;100722.25;;;19.20;56.47
64886;BME280;51514;52.206;5.114;2023-11-19T00:51:25;100726.03;;;19.19;56.42
64886;BME280;51514;52.206;5.114;2023-11-19T00:53:51;100728.75;;;19.19;56.39
64886;BME280;51514;52.206;5.114;2023-11-19T00:56:18;100724.34;;;19.18;56.51
64886;BME280;51514;52.206;5.114;2023-11-19T00:58:44;100718.88;;;19.18;56.71
64886;BME280;51514;52.206;5.114;2023-11-19T01:01:11;100727.91;;;19.19;56.79
64886;BME280;51514;52.206;5.114;2023-11-19T01:03:37;100723.28;;;19.19;56.79
64886;BME280;51514;52.206;5.114;2023-11-19T01:06:03;100719.50;;;19.20;56.85
64886;BME280;51514;52.206;5.114;2023-11-19T01:08:28;100709.41;;;19.21;56.68
64886;BME280;51514;52.206;5.114;2023-11-19T01:10:54;100720.13;;;19.22;56.74
64886;BME280;51514;52.206;5.114;2023-11-19T01:13:19;100706.47;;;19.22;56.76
64886;BME280;51514;52.206;5.114;2023-11-19T01:15:44;100699.09;;;19.23;56.85
64886;BME280;51514;52.206;5.114;2023-11-19T01:18:10;100695.31;;;19.24;56.90
64886;BME280;51514;52.206;5.114;2023-11-19T01:20:36;100687.09;;;19.24;56.61
64886;BME280;51514;52.206;5.114;2023-11-19T01:23:01;100682.47;;;19.24;56.86
64886;BME280;51514;52.206;5.114;2023-11-19T01:25:27;100676.19;;;19.24;56.79
64886;BME280;51514;52.206;5.114;2023-11-19T01:27:52;100691.53;;;19.25;56.78
64886;BME280;51514;52.206;5.114;2023-11-19T01:30:17;100685.22;;;19.24;56.73
64886;BME280;51514;52.206;5.114;2023-11-19T01:32:44;100693.41;;;19.24;56.82
64886;BME280;51514;52.206;5.114;2023-11-19T01:35:10;100693.41;;;19.24;56.96
64886;BME280;51514;52.206;5.114;2023-11-19T01:37:35;100680.81;;;19.23;56.78
64886;BME280;51514;52.206;5.114;2023-11-19T01:40:01;100686.28;;;19.23;56.81
64886;BME280;51514;52.206;5.114;2023-11-19T01:42:28;100693.84;;;19.21;56.81
64886;BME280;51514;52.206;5.114;2023-11-19T01:44:59;100693.22;;;19.19;56.90
64886;BME280;51514;52.206;5.114;2023-11-19T01:47:26;100699.31;;;19.21;56.79
64886;BME280;51514;52.206;5.114;2023-11-19T01:49:52;100697.63;;;19.20;56.78
64886;BME280;51514;52.206;5.114;2023-11-19T01:52:18;100699.31;;;19.21;56.81
64886;BME280;51514;52.206;5.114;2023-11-19T01:54:44;100710.47;;;19.20;56.76
64886;BME280;51514;52.206;5.114;2023-11-19T01:57:10;100705.22;;;19.18;56.87
64886;BME280;51514;52.206;5.114;2023-11-19T01:59:36;100703.53;;;19.17;56.95
64886;BME280;51514;52.206;5.114;2023-11-19T02:02:01;100696.38;;;19.16;56.91
64886;BME280;51514;52.206;5.114;2023-11-19T02:04:27;100698.06;;;19.17;56.80
64886;BME280;51514;52.206;5.114;2023-11-19T02:06:54;100693.66;;;19.16;56.93
64886;BME280;51514;52.206;5.114;2023-11-19T02:09:21;100688.41;;;19.15;56.94
64886;BME280;51514;52.206;5.114;2023-11-19T02:11:46;100688.41;;;19.15;56.88
64886;BME280;51514;52.206;5.114;2023-11-19T02:14:16;100693.50;;;19.05;57.04
64886;BME280;51514;52.206;5.114;2023-11-19T02:16:42;100697.28;;;19.10;57.10
64886;BME280;51514;52.206;5.114;2023-11-19T02:19:07;100706.31;;;19.11;56.92
64886;BME280;51514;52.206;5.114;2023-11-19T02:21:34;100702.75;;;19.10;57.00
64886;BME280;51514;52.206;5.114;2023-11-19T02:24:01;100707.38;;;19.10;56.89
64886;BME280;51514;52.206;5.114;2023-11-19T02:29:01;100715.78;;;19.08;57.03
64886;BME280;51514;52.206;5.114;2023-11-19T02:31:28;100717.66;;;19.08;57.00
64886;BME280;51514;52.206;5.114;2023-11-19T02:33:53;100721.47;;;19.07;57.04
64886;BME280;51514;52.206;5.114;2023-11-19T02:36:18;100710.72;;;19.05;57.13
64886;BME280;51514;52.206;5.114;2023-11-19T02:38:44;100699.81;;;19.05;57.11
64886;BME280;51514;52.206;5.114;2023-11-19T02:41:09;100689.94;;;19.04;57.09
64886;BME280;51514;52.206;5.114;2023-11-19T02:43:35;100686.59;;;19.02;57.17
64886;BME280;51514;52.206;5.114;2023-11-19T02:46:04;100692.06;;;19.02;57.19
64886;BME280;51514;52.206;5.114;2023-11-19T02:48:33;100694.78;;;19.02;57.03
64886;BME280;51514;52.206;5.114;2023-11-19T02:51:01;100693.97;;;19.02;57.11
64886;BME280;51514;52.206;5.114;2023-11-19T02:53:26;100702.38;;;19.00;56.88
64886;BME280;51514;52.206;5.114;2023-11-19T02:55:54;100699.63;;;19.00;57.18
64886;BME280;51514;52.206;5.114;2023-11-19T02:58:26;100701.53;;;19.00;57.13
64886;BME280;51514;52.206;5.114;2023-11-19T03:00:53;100696.06;;;19.00;57.24
64886;BME280;51514;52.206;5.114;2023-11-19T03:03:27;100692.50;;;18.99;57.28
64886;BME280;51514;52.206;5.114;2023-11-19T03:06:04;100694.16;;;19.00;57.41
64886;BME280;51514;52.206;5.114;2023-11-19T03:08:30;100698.59;;;19.01;57.10
64886;BME280;51514;52.206;5.114;2023-11-19T03:10:55;100703.00;;;19.02;57.35
64886;BME280;51514;52.206;5.114;2023-11-19T03:13:20;100704.69;;;19.03;57.30
64886;BME280;51514;52.206;5.114;2023-11-19T03:15:47;100711.78;;;19.04;57.39
64886;BME280;51514;52.206;5.114;2023-11-19T03:18:12;100695.19;;;19.06;57.44
64886;BME280;51514;52.206;5.114;2023-11-19T03:20:37;100696.84;;;19.07;57.33
64886;BME280;51514;52.206;5.114;2023-11-19T03:23:03;100703.16;;;19.07;57.30
64886;BME280;51514;52.206;5.114;2023-11-19T03:25:28;100682.97;;;19.08;57.27
64886;BME280;51514;52.206;5.114;2023-11-19T03:27:59;100684.66;;;19.09;57.20
64886;BME280;51514;52.206;5.114;2023-11-19T03:30:26;100675.41;;;19.10;57.39
64886;BME280;51514;52.206;5.114;2023-11-19T03:32:51;100678.13;;;19.10;57.35
64886;BME280;51514;52.206;5.114;2023-11-19T03:35:16;100675.41;;;19.10;57.28
64886;BME280;51514;52.206;5.114;2023-11-19T03:37:42;100669.94;;;19.10;57.21
64886;BME280;51514;52.206;5.114;2023-11-19T03:40:09;100665.31;;;19.11;57.33
64886;BME280;51514;52.206;5.114;2023-11-19T03:42:35;100667.00;;;19.12;57.22
64886;BME280;51514;52.206;5.114;2023-11-19T03:45:00;100668.88;;;19.11;57.33
64886;BME280;51514;52.206;5.114;2023-11-19T03:47:25;100673.50;;;19.11;57.36
64886;BME280;51514;52.206;5.114;2023-11-19T03:49:51;100685.28;;;19.11;57.27
64886;BME280;51514;52.206;5.114;2023-11-19T03:52:17;100689.06;;;19.10;57.31
64886;BME280;51514;52.206;5.114;2023-11-19T03:54:43;100691.81;;;19.10;57.36
64886;BME280;51514;52.206;5.114;2023-11-19T03:57:09;100701.06;;;19.09;57.27
64886;BME280;51514;52.206;5.114;2023-11-19T03:59:37;100703.78;;;19.09;57.21
64886;BME280;51514;52.206;5.114;2023-11-19T04:02:02;100703.78;;;19.09;57.26
64886;BME280;51514;52.206;5.114;2023-11-19T04:04:28;100707.38;;;19.10;57.32
64886;BME280;51514;52.206;5.114;2023-11-19T04:06:57;100706.75;;;19.08;57.34
64886;BME280;51514;52.206;5.114;2023-11-19T04:09:23;100705.91;;;19.07;57.24
64886;BME280;51514;52.206;5.114;2023-11-19T04:11:48;100699.59;;;19.07;57.22
64886;BME280;51514;52.206;5.114;2023-11-19T04:14:14;100703.38;;;19.06;57.33
64886;BME280;51514;52.206;5.114;2023-11-19T04:16:40;100708.00;;;19.05;57.13
64886;BME280;51514;52.206;5.114;2023-11-19T04:19:05;100721.66;;;19.05;57.21
64886;BME280;51514;52.206;5.114;2023-11-19T04:21:31;100713.69;;;19.04;57.28
64886;BME280;51514;52.206;5.114;2023-11-19T04:23:57;100707.41;;;19.03;57.12
64886;BME280;51514;52.206;5.114;2023-11-19T04:26:22;100706.56;;;19.03;57.36
64886;BME280;51514;52.206;5.114;2023-11-19T04:28:47;100710.34;;;19.02;57.32
64886;BME280;51514;52.206;5.114;2023-11-19T04:31:15;100711.19;;;19.02;57.35
64886;BME280;51514;52.206;5.114;2023-11-19T04:33:41;100708.66;;;19.01;57.42
64886;BME280;51514;52.206;5.114;2023-11-19T04:36:06;100713.31;;;19.00;57.26
64886;BME280;51514;52.206;5.114;2023-11-19T04:38:32;100712.47;;;19.00;57.57
64886;BME280;51514;52.206;5.114;2023-11-19T04:40:57;100709.94;;;18.98;57.38
64886;BME280;51514;52.206;5.114;2023-11-19T04:43:22;100711.00;;;18.97;57.00
64886;BME280;51514;52.206;5.114;2023-11-19T04:45:48;100714.78;;;18.96;57.28
64886;BME280;51514;52.206;5.114;2023-11-19T04:48:14;100706.56;;;18.96;57.47
64886;BME280;51514;52.206;5.114;2023-11-19T04:50:39;100697.75;;;18.94;57.21
64886;BME280;51514;52.206;5.114;2023-11-19T04:53:04;100704.91;;;18.95;57.46
64886;BME280;51514;52.206;5.114;2023-11-19T04:55:30;100705.09;;;18.93;57.57
64886;BME280;51514;52.206;5.114;2023-11-19T04:57:55;100708.09;;;18.92;57.46
64886;BME280;51514;52.206;5.114;2023-11-19T05:00:20;100713.56;;;18.92;57.21
64886;BME280;51514;52.206;5.114;2023-11-19T05:02:46;100715.44;;;18.91;57.32
64886;BME280;51514;52.206;5.114;2023-11-19T05:05:12;100706.41;;;18.91;57.33
64886;BME280;51514;52.206;5.114;2023-11-19T05:07:37;100721.13;;;18.90;57.60
64886;BME280;51514;52.206;5.114;2023-11-19T05:10:03;100718.38;;;18.90;57.45
64886;BME280;51514;52.206;5.114;2023-11-19T05:12:29;100716.72;;;18.89;57.54
64886;BME280;51514;52.206;5.114;2023-11-19T05:14:54;100712.09;;;18.89;57.45
64886;BME280;51514;52.206;5.114;2023-11-19T05:17:20;100710.41;;;18.88;57.45
64886;BME280;51514;52.206;5.114;2023-11-19T05:19:46;100712.09;;;18.89;57.41
64886;BME280;51514;52.206;5.114;2023-11-19T05:22:11;100710.41;;;18.88;57.51
64886;BME280;51514;52.206;5.114;2023-11-19T05:24:38;100710.41;;;18.88;57.51
64886;BME280;51514;52.206;5.114;2023-11-19T05:27:04;100713.13;;;18.88;57.73
64886;BME280;51514;52.206;5.114;2023-11-19T05:29:30;100717.75;;;18.88;57.62
64886;BME280;51514;52.206;5.114;2023-11-19T05:31:55;100725.97;;;18.88;57.57
64886;BME280;51514;52.206;5.114;2023-11-19T05:34:21;100713.34;;;18.87;57.45
64886;BME280;51514;52.206;5.114;2023-11-19T05:36:46;100721.53;;;18.87;57.54
64886;BME280;51514;52.206;5.114;2023-11-19T05:39:12;100719.66;;;18.87;57.65
64886;BME280;51514;52.206;5.114;2023-11-19T05:41:38;100717.13;;;18.86;57.56
64886;BME280;51514;52.206;5.114;2023-11-19T05:44:04;100729.75;;;18.87;57.68
64886;BME280;51514;52.206;5.114;2023-11-19T05:46:29;100720.91;;;18.85;57.55
64886;BME280;51514;52.206;5.114;2023-11-19T05:48:54;100730.78;;;18.86;57.57
64886;BME280;51514;52.206;5.114;2023-11-19T05:51:20;100736.69;;;18.83;57.84
64886;BME280;51514;52.206;5.114;2023-11-19T05:53:45;100736.69;;;18.83;57.52
64886;BME280;51514;52.206;5.114;2023-11-19T05:56:11;100728.47;;;18.83;57.69
64886;BME280;51514;52.206;5.114;2023-11-19T05:58:36;100723.00;;;18.83;57.42
64886;BME280;51514;52.206;5.114;2023-11-19T06:01:02;100722.19;;;18.82;57.54
64886;BME280;51514;52.206;5.114;2023-11-19T06:03:28;100715.06;;;18.81;57.61
64886;BME280;51514;52.206;5.114;2023-11-19T06:05:54;100720.53;;;18.81;57.55
64886;BME280;51514;52.206;5.114;2023-11-19T06:08:22;100727.03;;;18.80;57.47
64886;BME280;51514;52.206;5.114;2023-11-19T06:10:47;100723.47;;;18.80;57.73
64886;BME280;51514;52.206;5.114;2023-11-19T06:13:15;100724.53;;;18.79;57.63
64886;BME280;51514;52.206;5.114;2023-11-19T06:15:42;100728.31;;;18.78;57.52
64886;BME280;51514;52.206;5.114;2023-11-19T06:18:07;100718.44;;;18.77;57.58
64886;BME280;51514;52.206;5.114;2023-11-19T06:20:33;100718.44;;;18.77;57.68
64886;BME280;51514;52.206;5.114;2023-11-19T06:22:59;100715.69;;;18.77;57.69
64886;BME280;51514;52.206;5.114;2023-11-19T06:25:25;100722.22;;;18.76;57.56
64886;BME280;51514;52.206;5.114;2023-11-19T06:27:51;100726.84;;;18.75;57.58
64886;BME280;51514;52.206;5.114;2023-11-19T06:30:17;100731.47;;;18.75;57.62
64886;BME280;51514;52.206;5.114;2023-11-19T06:32:42;100731.47;;;18.75;57.86
64886;BME280;51514;52.206;5.114;2023-11-19T06:35:08;100724.94;;;18.76;57.87
64886;BME280;51514;52.206;5.114;2023-11-19T06:37:35;100719.47;;;18.76;58.00
64886;BME280;51514;52.206;5.114;2023-11-19T06:40:00;100731.03;;;18.78;58.03
64886;BME280;51514;52.206;5.114;2023-11-19T06:42:26;100724.31;;;18.80;57.95
64886;BME280;51514;52.206;5.114;2023-11-19T06:44:51;100731.22;;;18.83;57.99
64886;BME280;51514;52.206;5.114;2023-11-19T06:47:17;100733.53;;;18.86;58.01
64886;BME280;51514;52.206;5.114;2023-11-19T06:49:45;100735.19;;;18.87;57.90
64886;BME280;51514;52.206;5.114;2023-11-19T06:52:11;100730.38;;;18.89;57.94
64886;BME280;51514;52.206;5.114;2023-11-19T06:54:38;100732.69;;;18.92;57.99
64886;BME280;51514;52.206;5.114;2023-11-19T06:57:04;100733.28;;;18.94;57.82
64886;BME280;51514;52.206;5.114;2023-11-19T06:59:30;100744.00;;;18.95;58.02
64886;BME280;51514;52.206;5.114;2023-11-19T07:01:56;100733.91;;;18.96;57.97
64886;BME280;51514;52.206;5.114;2023-11-19T07:04:21;100741.06;;;18.97;57.84
64886;BME280;51514;52.206;5.114;2023-11-19T07:06:46;100754.50;;;18.99;57.85
64886;BME280;51514;52.206;5.114;2023-11-19T07:09:13;100746.09;;;19.00;57.83
64886;BME280;51514;52.206;5.114;2023-11-19T07:11:39;100740.63;;;19.00;57.74
64886;BME280;51514;52.206;5.114;2023-11-19T07:14:06;100758.69;;;19.01;57.86
64886;BME280;51514;52.206;5.114;2023-11-19T07:16:32;100751.13;;;19.03;57.85
64886;BME280;51514;52.206;5.114;2023-11-19T07:19:00;100754.91;;;19.02;57.69
64886;BME280;51514;52.206;5.114;2023-11-19T07:21:25;100753.88;;;19.03;57.79
64886;BME280;51514;52.206;5.114;2023-11-19T07:23:51;100753.88;;;19.03;57.47
64886;BME280;51514;52.206;5.114;2023-11-19T07:26:17;100757.66;;;19.02;57.65
64886;BME280;51514;52.206;5.114;2023-11-19T07:28:42;100762.88;;;19.04;58.01
64886;BME280;51514;52.206;5.114;2023-11-19T07:31:09;100752.78;;;19.04;57.64
64886;BME280;51514;52.206;5.114;2023-11-19T07:33:35;100763.72;;;19.04;57.71
64886;BME280;51514;52.206;5.114;2023-11-19T07:36:00;100757.41;;;19.04;57.76
64886;BME280;51514;52.206;5.114;2023-11-19T07:38:26;100767.28;;;19.05;57.66
64886;BME280;51514;52.206;5.114;2023-11-19T07:40:51;100760.13;;;19.04;57.57
64886;BME280;51514;52.206;5.114;2023-11-19T07:43:16;100766.44;;;19.04;57.62
64886;BME280;51514;52.206;5.114;2023-11-19T07:45:42;100770.25;;;19.03;57.76
64886;BME280;51514;52.206;5.114;2023-11-19T07:48:09;100773.00;;;19.03;57.59
64886;BME280;51514;52.206;5.114;2023-11-19T07:50:34;100766.44;;;19.04;57.31
64886;BME280;51514;52.206;5.114;2023-11-19T07:52:59;100769.19;;;19.04;57.63
64886;BME280;51514;52.206;5.114;2023-11-19T07:55:25;100763.72;;;19.04;57.69
64886;BME280;51514;52.206;5.114;2023-11-19T07:57:50;100759.09;;;19.05;57.59
64886;BME280;51514;52.206;5.114;2023-11-19T08:00:16;100754.03;;;19.08;57.53
64886;BME280;51514;52.206;5.114;2023-11-19T08:02:41;100763.91;;;19.09;57.40
64886;BME280;51514;52.206;5.114;2023-11-19T08:05:07;100759.91;;;19.12;57.39
64886;BME280;51514;52.206;5.114;2023-11-19T08:07:32;100757.81;;;19.14;57.52
64886;BME280;51514;52.206;5.114;2023-11-19T08:09:58;100764.50;;;19.18;57.43
64886;BME280;51514;52.206;5.114;2023-11-19T08:12:25;100759.66;;;19.20;57.39
64886;BME280;51514;52.206;5.114;2023-11-19T08:14:50;100751.88;;;19.23;57.33
64886;BME280;51514;52.206;5.114;2023-11-19T08:17:15;100753.56;;;19.24;57.19
64886;BME280;51514;52.206;5.114;2023-11-19T08:19:41;100764.03;;;19.27;57.16
64886;BME280;51514;52.206;5.114;2023-11-19T08:22:06;100752.69;;;19.30;57.00
64886;BME280;51514;52.206;5.114;2023-11-19T08:24:31;100766.97;;;19.32;57.09
64886;BME280;51514;52.206;5.114;2023-11-19T08:26:57;100768.66;;;19.33;57.13
64886;BME280;51514;52.206;5.114;2023-11-19T08:29:22;100768.44;;;19.35;56.96
64886;BME280;51514;52.206;5.114;2023-11-19T08:31:48;100772.59;;;19.38;56.97
64886;BME280;51514;52.206;5.114;2023-11-19T08:34:13;100773.44;;;19.38;57.04
64886;BME280;51514;52.206;5.114;2023-11-19T08:36:38;100780.81;;;19.38;56.99
64886;BME280;51514;52.206;5.114;2023-11-19T08:39:04;100777.03;;;19.39;56.90
64886;BME280;51514;52.206;5.114;2023-11-19T08:41:29;100779.53;;;19.40;56.80
64886;BME280;51514;52.206;5.114;2023-11-19T08:43:54;100785.00;;;19.40;56.88
64886;BME280;51514;52.206;5.114;2023-11-19T08:46:19;100786.91;;;19.40;56.92
64886;BME280;51514;52.206;5.114;2023-11-19T08:48:45;100788.81;;;19.39;57.12
64886;BME280;51514;52.206;5.114;2023-11-19T08:51:11;100783.34;;;19.39;56.78
64886;BME280;51514;52.206;5.114;2023-11-19T08:53:37;100783.34;;;19.39;56.93
64886;BME280;51514;52.206;5.114;2023-11-19T08:56:02;100793.44;;;19.39;56.84
64886;BME280;51514;52.206;5.114;2023-11-19T08:58:28;100774.50;;;19.37;57.09
64886;BME280;51514;52.206;5.114;2023-11-19T09:00:54;100782.94;;;19.36;56.89
64886;BME280;51514;52.206;5.114;2023-11-19T09:03:19;100777.47;;;19.36;57.11
64886;BME280;51514;52.206;5.114;2023-11-19T09:05:45;100785.06;;;19.33;56.90
64886;BME280;51514;52.206;5.114;2023-11-19T09:08:10;100778.97;;;19.31;57.04
64886;BME280;51514;52.206;5.114;2023-11-19T09:10:37;100790.94;;;19.30;57.13
64886;BME280;51514;52.206;5.114;2023-11-19T09:13:02;100781.06;;;19.29;57.16
64886;BME280;51514;52.206;5.114;2023-11-19T09:15:29;100777.50;;;19.29;57.11
64886;BME280;51514;52.206;5.114;2023-11-19T09:17:54;100773.91;;;19.28;57.15
64886;BME280;51514;52.206;5.114;2023-11-19T09:20:19;100774.13;;;19.27;57.00
64886;BME280;51514;52.206;5.114;2023-11-19T09:22:45;100772.44;;;19.26;56.95
64886;BME280;51514;52.206;5.114;2023-11-19T09:25:11;100772.44;;;19.26;57.10
64886;BME280;51514;52.206;5.114;2023-11-19T09:27:36;100771.63;;;19.25;57.10
64886;BME280;51514;52.206;5.114;2023-11-19T09:30:02;100769.97;;;19.24;57.25
64886;BME280;51514;52.206;5.114;2023-11-19T09:32:29;100777.53;;;19.22;57.32
64886;BME280;51514;52.206;5.114;2023-11-19T09:34:54;100781.31;;;19.21;57.25
64886;BME280;51514;52.206;5.114;2023-11-19T09:37:19;100782.16;;;19.22;57.32
64886;BME280;51514;52.206;5.114;2023-11-19T09:39:45;100774.81;;;19.22;57.18
64886;BME280;51514;52.206;5.114;2023-11-19T09:42:11;100776.69;;;19.22;57.27
64886;BME280;51514;52.206;5.114;2023-11-19T09:44:38;100781.31;;;19.21;57.37
64886;BME280;51514;52.206;5.114;2023-11-19T09:47:05;100780.28;;;19.22;57.45
64886;BME280;51514;52.206;5.114;2023-11-19T09:49:30;100772.91;;;19.23;57.36
64886;BME280;51514;52.206;5.114;2023-11-19T09:51:56;100766.38;;;19.24;57.53
64886;BME280;51514;52.206;5.114;2023-11-19T09:54:21;100767.63;;;19.28;57.50
64886;BME280;51514;52.206;5.114;2023-11-19T09:56:47;100771.81;;;19.30;57.44
64886;BME280;51514;52.206;5.114;2023-11-19T09:59:14;100774.13;;;19.33;57.37
64886;BME280;51514;52.206;5.114;2023-11-19T10:01:39;100772.41;;;19.39;57.39
64886;BME280;51514;52.206;5.114;2023-11-19T10:04:06;100771.13;;;19.42;57.39
64886;BME280;51514;52.206;5.114;2023-11-19T10:06:32;100761.88;;;19.43;57.13
64886;BME280;51514;52.206;5.114;2023-11-19T10:08:57;100753.66;;;19.43;56.74
64886;BME280;51514;52.206;5.114;2023-11-19T10:11:24;100759.13;;;19.43;56.86
64886;BME280;51514;52.206;5.114;2023-11-19T10:13:51;100752.63;;;19.44;56.97
64886;BME280;51514;52.206;5.114;2023-11-19T10:16:18;100747.78;;;19.46;56.89
64886;BME280;51514;52.206;5.114;2023-11-19T10:18:47;100747.53;;;19.47;56.92
64886;BME280;51514;52.206;5.114;2023-11-19T10:21:13;100755.94;;;19.52;56.82
64886;BME280;51514;52.206;5.114;2023-11-19T10:23:55;100755.13;;;19.52;56.92
64886;BME280;51514;52.206;5.114;2023-11-19T10:26:26;100746.84;;;19.58;56.79
64886;BME280;51514;52.206;5.114;2023-11-19T10:28:51;100753.78;;;19.61;56.70
64886;BME280;51514;52.206;5.114;2023-11-19T10:31:18;100748.09;;;19.62;56.57
64886;BME280;51514;52.206;5.114;2023-11-19T10:33:44;100753.34;;;19.64;56.48
64886;BME280;51514;52.206;5.114;2023-11-19T10:36:11;100746.00;;;19.64;56.54
64886;BME280;51514;52.206;5.114;2023-11-19T10:38:38;100760.50;;;19.65;56.51
64886;BME280;51514;52.206;5.114;2023-11-19T10:41:03;100758.81;;;19.64;56.64
64886;BME280;51514;52.206;5.114;2023-11-19T10:43:30;100753.34;;;19.64;56.57
64886;BME280;51514;52.206;5.114;2023-11-19T10:46:09;100748.31;;;19.61;56.55
64886;BME280;51514;52.206;5.114;2023-11-19T10:48:35;100743.25;;;19.64;56.53
64886;BME280;51514;52.206;5.114;2023-11-19T10:51:03;100743.03;;;19.66;56.89
64886;BME280;51514;52.206;5.114;2023-11-19T10:53:31;100740.69;;;19.69;56.77
64886;BME280;51514;52.206;5.114;2023-11-19T10:55:59;100744.03;;;19.72;56.73
64886;BME280;51514;52.206;5.114;2023-11-19T10:58:28;100749.50;;;19.72;56.64
64886;BME280;51514;52.206;5.114;2023-11-19T11:00:56;100747.41;;;19.74;56.63
64886;BME280;51514;52.206;5.114;2023-11-19T11:03:25;100746.13;;;19.76;56.51
64886;BME280;51514;52.206;5.114;2023-11-19T11:05:52;100751.16;;;19.79;56.42
64886;BME280;51514;52.206;5.114;2023-11-19T11:08:19;100758.06;;;19.82;56.38
64886;BME280;51514;52.206;5.114;2023-11-19T11:10:52;100753.44;;;19.82;56.18
64886;BME280;51514;52.206;5.114;2023-11-19T11:13:18;100760.16;;;19.86;56.26
64886;BME280;51514;52.206;5.114;2023-11-19T11:15:44;100754.69;;;19.86;55.81
64886;BME280;51514;52.206;5.114;2023-11-19T11:18:12;100750.25;;;19.85;56.13
64886;BME280;51514;52.206;5.114;2023-11-19T11:20:38;100751.09;;;19.86;56.23
64886;BME280;51514;52.206;5.114;2023-11-19T11:26:06;100741.44;;;19.83;56.17
64886;BME280;51514;52.206;5.114;2023-11-19T11:34:32;100743.09;;;19.84;56.03
64886;BME280;51514;52.206;5.114;2023-11-19T11:37:10;100737.84;;;19.83;56.10
64886;BME280;51514;52.206;5.114;2023-11-19T11:39:40;100736.78;;;19.84;56.19
64886;BME280;51514;52.206;5.114;2023-11-19T11:45:07;100735.81;;;19.78;56.29
64886;BME280;51514;52.206;5.114;2023-11-19T11:50:15;100729.28;;;19.79;55.99
64886;BME280;51514;52.206;5.114;2023-11-19T11:55:34;100722.38;;;19.70;56.33
64886;BME280;51514;52.206;5.114;2023-11-19T11:58:01;100728.03;;;19.75;56.29
64886;BME280;51514;52.206;5.114;2023-11-19T12:02:57;100723.00;;;19.72;56.18
64886;BME280;51514;52.206;5.114;2023-11-19T12:05:24;100719.19;;;19.73;56.32
64886;BME280;51514;52.206;5.114;2023-11-19T12:08:00;100724.03;;;19.71;56.43
64886;BME280;51514;52.206;5.114;2023-11-19T12:10:30;100715.63;;;19.73;56.21
64886;BME280;51514;52.206;5.114;2023-11-19T12:12:59;100716.47;;;19.73;56.32
64886;BME280;51514;52.206;5.114;2023-11-19T12:15:25;100712.88;;;19.73;56.29
64886;BME280;51514;52.206;5.114;2023-11-19T12:17:53;100717.31;;;19.74;56.24
64886;BME280;51514;52.206;5.114;2023-11-19T12:20:23;100721.94;;;19.73;56.43
64886;BME280;51514;52.206;5.114;2023-11-19T12:22:50;100720.66;;;19.76;56.37
64886;BME280;51514;52.206;5.114;2023-11-19T12:25:16;100720.44;;;19.77;56.37
64886;BME280;51514;52.206;5.114;2023-11-19T12:27:44;100728.44;;;19.79;56.38
64886;BME280;51514;52.206;5.114;2023-11-19T12:30:10;100716.66;;;19.78;56.38
64886;BME280;51514;52.206;5.114;2023-11-19T12:32:43;100722.13;;;19.78;56.18
64886;BME280;51514;52.206;5.114;2023-11-19T12:35:10;100726.91;;;19.83;56.35
64886;BME280;51514;52.206;5.114;2023-11-19T12:37:45;100733.66;;;19.80;56.32
64886;BME280;51514;52.206;5.114;2023-11-19T12:40:14;100727.75;;;19.83;56.12
64886;BME280;51514;52.206;5.114;2023-11-19T12:42:40;100731.53;;;19.82;56.27
64886;BME280;51514;52.206;5.114;2023-11-19T12:45:06;100732.16;;;19.84;56.18
64886;BME280;51514;52.206;5.114;2023-11-19T12:47:36;100725.00;;;19.83;56.32
64886;BME280;51514;52.206;5.114;2023-11-19T12:50:07;100732.16;;;19.84;56.17
64886;BME280;51514;52.206;5.114;2023-11-19T12:52:36;100729.44;;;19.84;56.19
64886;BME280;51514;52.206;5.114;2023-11-19T12:55:03;100717.84;;;19.82;55.98
64886;BME280;51514;52.206;5.114;2023-11-19T12:57:39;100721.66;;;19.81;56.14
64886;BME280;51514;52.206;5.114;2023-11-19T13:00:06;100717.84;;;19.82;56.27
64886;BME280;51514;52.206;5.114;2023-11-19T13:02:46;100729.28;;;19.79;56.09
64886;BME280;51514;52.206;5.114;2023-11-19T13:08:09;100714.13;;;19.77;56.10
64886;BME280;51514;52.206;5.114;2023-11-19T13:10:54;100718.13;;;19.74;56.11